Time;durP1;ratioP1;P1;durP2;ratioP2;P2;SDS_P1;SDS_P2;PMS_P1;PMS_P2;Temp;Humidity;BMP_temperature;BMP_pressure;BME280_temperature;BME280_humidity;BME280_pressure;Samples;Min_cycle;Max_cycle;Signal;HPM_P1;HPM_P2
2021/12/07 00:01:26;;;;;;;1.00;0.60;;;17.00;64.90;;;;;;5052548;28;20041;-21
2021/12/07 00:03:52;;;;;;;0.70;0.57;;;16.90;64.90;;;;;;5053313;28;20049;-26
2021/12/07 00:06:17;;;;;;;0.88;0.60;;;16.90;65.00;;;;;;5055058;28;20041;-30
2021/12/07 00:08:43;;;;;;;1.23;0.82;;;16.90;64.80;;;;;;5059735;28;20549;-22
2021/12/07 00:11:09;;;;;;;0.90;0.47;;;16.90;64.80;;;;;;5061425;28;20614;-22
2021/12/07 00:13:38;;;;;;;0.57;0.50;;;16.90;64.80;;;;;;5056050;28;20061;-24
2021/12/07 00:16:05;;;;;;;0.70;0.60;;;16.90;64.70;;;;;;5057034;28;20083;-27
2021/12/07 00:18:30;;;;;;;0.50;0.43;;;16.90;64.80;;;;;;5034110;28;20096;-25
2021/12/07 00:20:56;;;;;;;0.63;0.60;;;16.90;64.80;;;;;;5018671;28;20691;-26
2021/12/07 00:23:21;;;;;;;0.50;0.50;;;16.90;64.80;;;;;;5016288;28;20120;-25
2021/12/07 00:25:47;;;;;;;0.90;0.77;;;16.90;64.70;;;;;;5017132;28;20525;-27
2021/12/07 00:28:13;;;;;;;0.57;0.43;;;16.90;64.70;;;;;;5029678;28;20042;-24
2021/12/07 00:30:39;;;;;;;0.50;0.50;;;16.90;64.80;;;;;;5036150;28;20624;-29
2021/12/07 00:33:13;;;;;;;0.95;0.50;;;16.90;64.80;;;;;;5036445;28;20117;-29
2021/12/07 00:35:39;;;;;;;1.60;0.60;;;16.90;64.70;;;;;;5036122;28;20045;-23
2021/12/07 00:38:11;;;;;;;0.60;0.60;;;16.90;64.60;;;;;;5036313;28;20045;-23
2021/12/07 00:40:37;;;;;;;0.50;0.50;;;16.90;64.60;;;;;;5035796;28;20049;-26
2021/12/07 00:43:03;;;;;;;0.50;0.50;;;16.90;64.60;;;;;;5036301;28;20494;-21
2021/12/07 00:45:32;;;;;;;0.57;0.40;;;16.90;64.60;;;;;;5035976;28;20379;-21
2021/12/07 00:47:57;;;;;;;0.90;0.60;;;16.90;64.50;;;;;;5036131;28;20065;-23
2021/12/07 00:50:23;;;;;;;1.48;0.38;;;16.90;64.50;;;;;;5035872;28;20042;-28
2021/12/07 00:52:49;;;;;;;2.10;0.50;;;16.90;64.40;;;;;;5036174;28;20144;-27
2021/12/07 00:55:17;;;;;;;0.57;0.40;;;16.90;64.50;;;;;;5036611;28;20064;-26
2021/12/07 00:57:43;;;;;;;1.15;0.63;;;16.90;64.50;;;;;;5035761;28;20046;-23
2021/12/07 01:00:13;;;;;;;0.98;0.55;;;16.90;64.50;;;;;;5036311;28;20051;-27
2021/12/07 01:02:39;;;;;;;2.15;0.60;;;16.80;64.50;;;;;;5035191;28;20402;-28
2021/12/07 01:05:13;;;;;;;0.70;0.63;;;16.80;64.50;;;;;;5042563;28;20075;-23
2021/12/07 01:26:37;;;;;;;0.60;0.60;;;16.80;64.50;;;;;;5074470;28;20614;-27
2021/12/07 01:29:03;;;;;;;1.08;0.52;;;16.80;64.40;;;;;;5051988;28;20451;-24
2021/12/07 01:37:43;;;;;;;1.70;0.50;;;16.80;64.40;;;;;;5035797;28;20144;-24
2021/12/07 01:45:58;;;;;;;0.70;0.43;;;16.80;64.30;;;;;;5035615;28;20064;-28
2021/12/07 01:49:39;;;;;;;0.40;0.40;;;16.80;64.30;;;;;;5053908;28;20084;-26
2021/12/07 02:00:54;;;;;;;1.05;0.57;;;16.80;64.30;;;;;;5054908;28;20049;-24
2021/12/07 02:03:20;;;;;;;1.33;0.60;;;16.80;64.30;;;;;;5054880;28;20061;-24
2021/12/07 02:05:46;;;;;;;1.40;0.28;;;16.70;64.30;;;;;;5042750;28;20061;-25
2021/12/07 02:08:12;;;;;;;1.88;0.38;;;16.80;64.40;;;;;;5034969;28;20037;-23
2021/12/07 02:10:37;;;;;;;0.75;0.63;;;16.80;64.40;;;;;;5043291;28;20076;-23
2021/12/07 02:15:47;;;;;;;1.02;0.50;;;16.80;64.20;;;;;;5019251;28;20061;-26
2021/12/07 02:18:13;;;;;;;0.45;0.40;;;16.80;64.20;;;;;;5034959;28;20644;-25
2021/12/07 02:20:38;;;;;;;0.50;0.40;;;16.80;64.20;;;;;;5033854;28;20067;-25
2021/12/07 02:23:04;;;;;;;0.75;0.45;;;16.80;64.20;;;;;;5034228;28;20049;-27
2021/12/07 02:25:32;;;;;;;0.85;0.50;;;16.70;64.20;;;;;;5034039;28;20038;-24
2021/12/07 02:27:57;;;;;;;0.98;0.60;;;16.70;64.20;;;;;;5045606;28;20048;-20
2021/12/07 02:30:24;;;;;;;0.68;0.40;;;16.70;64.20;;;;;;5052944;28;20048;-26
2021/12/07 02:32:52;;;;;;;0.73;0.40;;;16.70;64.40;;;;;;5054325;28;20056;-29
2021/12/07 02:35:23;;;;;;;0.50;0.40;;;16.70;64.30;;;;;;5054745;28;20519;-24
2021/12/07 02:37:49;;;;;;;0.57;0.30;;;16.70;64.40;;;;;;5042461;28;20136;-25
2021/12/07 02:40:14;;;;;;;0.40;0.40;;;16.70;64.40;;;;;;5034711;28;20114;-24
2021/12/07 02:42:40;;;;;;;0.85;0.60;;;16.70;64.30;;;;;;5033823;28;20040;-23
2021/12/07 02:45:06;;;;;;;1.45;0.40;;;16.60;64.30;;;;;;5034645;28;20041;-28
2021/12/07 02:47:36;;;;;;;0.40;0.40;;;16.60;64.40;;;;;;5033920;28;20038;-24
2021/12/07 02:50:03;;;;;;;0.40;0.40;;;16.60;64.30;;;;;;5034137;28;20053;-25
2021/12/07 02:52:29;;;;;;;0.57;0.57;;;16.60;64.40;;;;;;5033426;28;20417;-25
2021/12/07 02:54:54;;;;;;;0.60;0.52;;;16.60;64.50;;;;;;5030163;28;20076;-28
2021/12/07 02:57:21;;;;;;;0.50;0.40;;;16.60;64.50;;;;;;5025168;28;20080;-30
2021/12/07 02:59:52;;;;;;;0.55;0.40;;;16.60;64.50;;;;;;5016166;28;20053;-29
2021/12/07 03:02:19;;;;;;;0.40;0.30;;;16.60;64.50;;;;;;5016325;28;20042;-25
2021/12/07 03:05:17;;;;;;;0.52;0.50;;;16.60;64.50;;;;;;5033735;28;20050;-28
2021/12/07 03:26:40;;;;;;;0.85;0.45;;;16.60;64.40;;;;;;5055455;28;20452;-26
2021/12/07 03:29:06;;;;;;;0.73;0.43;;;16.60;64.40;;;;;;5054150;28;20045;-24
2021/12/07 03:31:32;;;;;;;0.45;0.45;;;16.50;64.40;;;;;;5053168;28;20037;-28
2021/12/07 03:33:59;;;;;;;1.15;0.50;;;16.50;64.40;;;;;;5053909;28;20095;-23
2021/12/07 03:36:25;;;;;;;0.50;0.40;;;16.50;64.40;;;;;;5054073;28;20052;-21
2021/12/07 03:38:50;;;;;;;1.17;0.60;;;16.50;64.40;;;;;;5053226;28;20128;-31
2021/12/07 03:41:16;;;;;;;0.35;0.35;;;16.50;64.40;;;;;;5056355;28;20090;-24
2021/12/07 03:43:42;;;;;;;0.40;0.30;;;16.50;64.30;;;;;;5057081;28;20045;-26
2021/12/07 03:46:07;;;;;;;0.80;0.30;;;16.50;64.30;;;;;;5057982;28;20129;-21
2021/12/07 03:48:33;;;;;;;0.30;0.30;;;16.50;64.40;;;;;;5057150;28;20061;-23
2021/12/07 03:50:59;;;;;;;0.95;0.45;;;16.50;64.40;;;;;;5057448;28;20136;-28
2021/12/07 03:53:25;;;;;;;0.95;0.40;;;16.50;64.30;;;;;;5057485;28;20131;-27
2021/12/07 03:55:50;;;;;;;0.95;0.30;;;16.50;64.40;;;;;;5057023;28;20128;-24
2021/12/07 03:58:16;;;;;;;0.73;0.60;;;16.50;64.40;;;;;;5056642;28;20091;-26
2021/12/07 04:00:44;;;;;;;0.30;0.30;;;16.50;64.30;;;;;;5048900;28;20124;-25
2021/12/07 04:03:11;;;;;;;0.43;0.30;;;16.50;64.40;;;;;;5049221;28;20060;-22
2021/12/07 04:05:44;;;;;;;0.50;0.30;;;16.50;64.30;;;;;;5056916;28;20041;-24
2021/12/07 04:08:18;;;;;;;0.43;0.20;;;16.50;64.40;;;;;;5057298;28;20080;-25
2021/12/07 04:10:44;;;;;;;0.47;0.30;;;16.50;64.40;;;;;;5057706;28;20124;-25
2021/12/07 04:13:10;;;;;;;0.47;0.47;;;16.40;64.30;;;;;;5056856;28;20044;-29
2021/12/07 04:15:35;;;;;;;0.65;0.30;;;16.50;64.30;;;;;;5056865;28;20064;-26
2021/12/07 04:18:01;;;;;;;0.30;0.30;;;16.40;64.30;;;;;;5057403;28;20049;-28
2021/12/07 04:20:27;;;;;;;0.40;0.40;;;16.40;64.40;;;;;;5057215;28;20414;-28
2021/12/07 04:22:54;;;;;;;1.33;0.52;;;16.40;64.30;;;;;;5055783;28;20071;-26
2021/12/07 04:25:19;;;;;;;0.35;0.30;;;16.40;64.40;;;;;;5057104;28;20528;-26
2021/12/07 04:27:46;;;;;;;1.52;0.32;;;16.40;64.40;;;;;;5049247;28;20402;-22
2021/12/07 04:30:17;;;;;;;0.45;0.40;;;16.40;64.40;;;;;;5043031;28;20033;-25
2021/12/07 04:32:43;;;;;;;0.98;0.45;;;16.50;64.30;;;;;;5036026;28;20045;-24
2021/12/07 04:35:09;;;;;;;0.80;0.35;;;16.40;64.20;;;;;;5037036;28;20079;-24
2021/12/07 04:37:34;;;;;;;0.30;0.30;;;16.40;64.20;;;;;;5036177;28;20037;-23
2021/12/07 04:40:00;;;;;;;0.60;0.30;;;16.40;64.20;;;;;;5037082;28;20045;-24
2021/12/07 04:42:26;;;;;;;0.77;0.38;;;16.40;64.20;;;;;;5036553;28;20049;-23
2021/12/07 04:44:56;;;;;;;0.60;0.60;;;16.40;64.30;;;;;;5036417;28;20037;-25
2021/12/07 04:47:33;;;;;;;0.50;0.38;;;16.40;64.30;;;;;;5027950;28;20041;-21
2021/12/07 04:57:59;;;;;;;0.55;0.55;;;16.40;64.10;;;;;;5044151;28;19966;-23
2021/12/07 05:00:26;;;;;;;0.55;0.40;;;16.40;64.20;;;;;;5036396;28;20558;-26
2021/12/07 05:02:56;;;;;;;0.80;0.40;;;16.40;64.20;;;;;;5035047;28;20053;-24
2021/12/07 05:05:26;;;;;;;0.70;0.43;;;16.40;64.20;;;;;;5036095;28;20037;-26
2021/12/07 05:07:55;;;;;;;0.40;0.30;;;16.40;63.90;;;;;;5035458;28;20507;-27
2021/12/07 05:10:30;;;;;;;0.60;0.40;;;16.40;64.10;;;;;;5052641;28;20045;-24
2021/12/07 05:13:23;;;;;;;0.68;0.57;;;16.40;64.10;;;;;;5058302;28;20094;-21
2021/12/07 05:40:07;;;;;;;0.40;0.40;;;16.40;63.80;;;;;;5039092;28;20048;-26
2021/12/07 05:42:37;;;;;;;0.90;0.40;;;16.40;63.80;;;;;;5028955;28;20041;-25
2021/12/07 05:45:04;;;;;;;0.40;0.40;;;16.50;64.40;;;;;;5032294;28;20505;-25
2021/12/07 05:47:29;;;;;;;0.77;0.40;;;16.40;63.70;;;;;;5038291;28;20067;-28
2021/12/07 05:49:55;;;;;;;0.77;0.40;;;16.40;63.60;;;;;;5040606;28;20053;-25
2021/12/07 05:52:21;;;;;;;0.30;0.30;;;16.50;63.70;;;;;;5036632;28;20565;-29
2021/12/07 05:54:46;;;;;;;0.73;0.55;;;16.50;63.50;;;;;;5038271;28;20046;-26
2021/12/07 05:57:13;;;;;;;0.57;0.50;;;16.50;63.60;;;;;;5043592;28;20048;-27
2021/12/07 05:59:39;;;;;;;0.40;0.40;;;16.50;63.50;;;;;;5027156;28;20528;-28
2021/12/07 06:02:04;;;;;;;0.82;0.45;;;16.50;63.50;;;;;;5025298;28;20402;-23
2021/12/07 06:04:30;;;;;;;1.85;0.30;;;16.50;63.50;;;;;;5025512;28;20045;-23
2021/12/07 06:06:57;;;;;;;0.68;0.30;;;16.50;63.60;;;;;;5023397;28;20397;-26
2021/12/07 06:09:23;;;;;;;1.83;0.47;;;16.50;63.60;;;;;;5029821;28;20784;-26
2021/12/07 06:11:50;;;;;;;0.30;0.30;;;16.50;63.60;;;;;;5038437;28;20037;-24
2021/12/07 06:14:19;;;;;;;0.30;0.30;;;16.40;63.70;;;;;;5026376;28;20527;-27
2021/12/07 06:16:46;;;;;;;0.30;0.20;;;16.50;63.80;;;;;;5026390;28;20402;-26
2021/12/07 06:19:11;;;;;;;0.50;0.50;;;16.50;63.80;;;;;;5023105;28;20053;-26
2021/12/07 06:21:37;;;;;;;0.47;0.30;;;16.40;63.80;;;;;;5027329;28;20049;-21
2021/12/07 06:24:02;;;;;;;0.50;0.38;;;16.40;63.80;;;;;;5022553;28;20671;-24
2021/12/07 06:26:28;;;;;;;0.50;0.50;;;16.50;63.90;;;;;;5024031;28;20045;-23
2021/12/07 06:28:54;;;;;;;0.57;0.40;;;16.50;63.90;;;;;;5026047;28;20042;-29
2021/12/07 06:31:19;;;;;;;0.30;0.22;;;16.50;64.00;;;;;;5025198;28;20033;-24
2021/12/07 06:33:45;;;;;;;0.40;0.30;;;16.50;64.10;;;;;;5026474;28;20095;-22
2021/12/07 06:36:12;;;;;;;0.68;0.40;;;16.50;64.00;;;;;;5037827;28;20041;-26
2021/12/07 06:38:38;;;;;;;0.60;0.50;;;16.50;64.30;;;;;;5025568;28;20140;-24
2021/12/07 06:41:03;;;;;;;1.60;0.60;;;16.50;64.30;;;;;;5022566;28;20062;-26
2021/12/07 06:43:29;;;;;;;0.93;0.60;;;16.50;64.30;;;;;;5026189;28;20037;-23
2021/12/07 06:45:55;;;;;;;0.40;0.30;;;16.50;64.50;;;;;;5024736;28;20040;-24
2021/12/07 06:48:20;;;;;;;0.63;0.40;;;16.40;64.60;;;;;;5026104;28;20058;-24
2021/12/07 06:50:47;;;;;;;0.32;0.32;;;16.50;64.60;;;;;;5020516;28;20042;-26
2021/12/07 06:53:13;;;;;;;0.30;0.30;;;16.50;64.70;;;;;;5033128;28;20045;-28
2021/12/07 06:55:38;;;;;;;0.47;0.22;;;16.50;64.80;;;;;;5022559;28;20564;-26
2021/12/07 06:58:04;;;;;;;1.13;0.65;;;16.50;64.80;;;;;;5030726;28;20042;-31
2021/12/07 07:00:29;;;;;;;0.40;0.30;;;16.50;64.80;;;;;;5031046;28;20041;-27
2021/12/07 07:02:55;;;;;;;0.45;0.30;;;16.50;64.80;;;;;;5047406;28;20053;-30
2021/12/07 07:05:21;;;;;;;1.15;0.35;;;16.50;64.80;;;;;;5023016;28;20048;-29
2021/12/07 07:07:46;;;;;;;0.43;0.43;;;16.50;64.80;;;;;;5022490;28;20406;-26
2021/12/07 07:10:14;;;;;;;0.60;0.40;;;16.50;64.80;;;;;;5033420;28;20056;-26
2021/12/07 07:12:40;;;;;;;2.38;0.47;;;16.50;64.70;;;;;;5052157;28;20041;-26
2021/12/07 07:15:06;;;;;;;0.40;0.20;;;16.50;64.60;;;;;;5044588;28;20065;-21
2021/12/07 07:17:31;;;;;;;0.80;0.55;;;16.50;64.60;;;;;;5058588;28;20099;-24
2021/12/07 07:19:57;;;;;;;1.40;0.40;;;16.50;64.70;;;;;;5041514;28;20033;-21
2021/12/07 07:22:23;;;;;;;0.30;0.30;;;16.50;64.80;;;;;;5047152;28;20068;-30
2021/12/07 07:24:49;;;;;;;0.32;0.32;;;16.50;64.80;;;;;;5042399;28;20442;-21
2021/12/07 07:27:14;;;;;;;0.73;0.30;;;16.50;64.80;;;;;;5047432;28;20132;-24
2021/12/07 07:29:40;;;;;;;0.60;0.40;;;16.50;64.70;;;;;;5033539;28;20038;-28
2021/12/07 07:32:06;;;;;;;0.43;0.40;;;16.50;64.80;;;;;;5025871;28;20138;-24
2021/12/07 07:34:31;;;;;;;1.02;0.52;;;16.50;64.80;;;;;;5030788;28;20045;-24
2021/12/07 07:36:57;;;;;;;0.65;0.30;;;16.50;64.80;;;;;;5028221;28;20100;-30
2021/12/07 07:39:22;;;;;;;0.40;0.30;;;16.50;64.70;;;;;;5030244;28;20406;-21
2021/12/07 07:41:48;;;;;;;0.40;0.40;;;16.50;64.80;;;;;;5028237;28;20126;-24
2021/12/07 07:44:14;;;;;;;0.50;0.30;;;16.50;64.70;;;;;;5025215;28;20041;-24
2021/12/07 07:46:39;;;;;;;0.40;0.40;;;16.50;64.70;;;;;;5025181;28;20510;-26
2021/12/07 07:49:05;;;;;;;1.48;0.28;;;16.50;64.70;;;;;;5034487;28;20056;-27
2021/12/07 07:51:32;;;;;;;1.17;0.30;;;16.50;64.70;;;;;;5018304;28;20033;-27
2021/12/07 07:53:59;;;;;;;1.00;0.40;;;16.50;64.60;;;;;;5035589;28;20046;-25
2021/12/07 07:56:25;;;;;;;0.20;0.20;;;16.50;64.60;;;;;;5030111;28;20041;-23
2021/12/07 07:58:51;;;;;;;0.43;0.38;;;16.50;64.50;;;;;;5029326;28;20034;-24
2021/12/07 08:01:17;;;;;;;0.50;0.30;;;16.50;64.50;;;;;;5027683;28;20092;-29
2021/12/07 08:03:42;;;;;;;0.70;0.40;;;16.50;64.60;;;;;;5033611;28;20014;-26
2021/12/07 08:06:08;;;;;;;0.40;0.32;;;16.50;64.50;;;;;;5034806;28;20026;-27
2021/12/07 08:08:33;;;;;;;0.55;0.30;;;16.50;64.40;;;;;;5034718;28;20025;-27
2021/12/07 08:11:01;;;;;;;0.98;0.45;;;16.50;64.40;;;;;;5035664;28;20017;-24
2021/12/07 08:13:26;;;;;;;0.30;0.30;;;16.50;64.50;;;;;;5035456;28;20474;-23
2021/12/07 08:15:52;;;;;;;1.50;0.65;;;16.40;64.40;;;;;;5036159;28;20398;-26
2021/12/07 08:18:17;;;;;;;0.40;0.20;;;16.40;64.40;;;;;;5036132;28;20549;-22
2021/12/07 08:20:43;;;;;;;1.75;0.45;;;16.40;64.40;;;;;;5035914;28;20109;-25
2021/12/07 08:23:09;;;;;;;1.63;0.50;;;16.40;64.30;;;;;;5035833;28;20028;-26
2021/12/07 08:25:37;;;;;;;0.40;0.30;;;16.50;64.40;;;;;;5036135;28;20587;-22
2021/12/07 08:28:04;;;;;;;1.00;0.40;;;16.50;64.20;;;;;;5037578;28;20599;-24
2021/12/07 08:30:30;;;;;;;1.63;0.40;;;16.50;64.20;;;;;;5039558;28;20070;-24
2021/12/07 08:32:55;;;;;;;0.43;0.30;;;16.50;64.30;;;;;;5039396;28;20029;-29
2021/12/07 08:35:21;;;;;;;0.68;0.40;;;16.50;64.20;;;;;;5039391;28;20026;-21
2021/12/07 08:37:47;;;;;;;0.38;0.38;;;16.50;64.10;;;;;;5039192;28;20034;-25
2021/12/07 08:40:14;;;;;;;0.38;0.38;;;16.50;64.20;;;;;;5039283;28;20029;-23
2021/12/07 08:42:40;;;;;;;0.40;0.40;;;16.40;64.10;;;;;;5039284;28;20505;-24
2021/12/07 08:45:06;;;;;;;0.47;0.30;;;16.40;64.20;;;;;;5039331;28;20029;-24
2021/12/07 08:47:32;;;;;;;0.43;0.40;;;16.50;64.10;;;;;;5038959;28;20029;-23
2021/12/07 08:49:57;;;;;;;0.85;0.40;;;16.50;64.10;;;;;;5039096;28;20157;-28
2021/12/07 08:52:24;;;;;;;1.08;0.40;;;16.50;64.00;;;;;;5038954;28;20439;-26
2021/12/07 09:00:01;;;;;;;0.47;0.32;;;16.40;64.10;;;;;;5039081;28;20086;-21
2021/12/07 09:02:27;;;;;;;1.02;0.40;;;16.40;63.90;;;;;;5038973;28;20022;-21
2021/12/07 09:04:55;;;;;;;0.63;0.25;;;16.50;64.00;;;;;;5038642;28;20036;-27
2021/12/07 09:07:22;;;;;;;0.30;0.20;;;16.40;63.90;;;;;;5038525;28;20104;-22
2021/12/07 09:09:47;;;;;;;0.30;0.30;;;16.50;63.90;;;;;;5038802;28;20036;-22
2021/12/07 09:12:14;;;;;;;0.60;0.38;;;16.50;63.90;;;;;;5038853;28;20108;-32
2021/12/07 09:14:42;;;;;;;1.95;0.50;;;16.40;63.80;;;;;;5038788;28;20152;-23
2021/12/07 09:17:07;;;;;;;1.10;0.30;;;16.50;63.90;;;;;;5038798;28;20372;-22
2021/12/07 09:19:33;;;;;;;0.50;0.30;;;16.40;63.80;;;;;;5038470;28;20091;-27
2021/12/07 09:21:59;;;;;;;0.38;0.38;;;16.40;63.80;;;;;;5038424;28;20038;-23
2021/12/07 09:24:25;;;;;;;1.42;0.38;;;16.40;63.80;;;;;;5038389;28;20028;-23
2021/12/07 09:26:52;;;;;;;1.35;0.38;;;16.50;63.70;;;;;;5038486;28;20535;-23
2021/12/07 09:29:18;;;;;;;0.50;0.30;;;16.40;63.80;;;;;;5038444;28;20116;-25
2021/12/07 09:31:44;;;;;;;0.40;0.40;;;16.40;63.80;;;;;;5038441;28;20083;-26
2021/12/07 09:34:11;;;;;;;0.55;0.38;;;16.40;63.80;;;;;;5038451;28;20029;-22
2021/12/07 09:36:37;;;;;;;0.40;0.32;;;16.40;63.70;;;;;;5038121;28;20036;-21
2021/12/07 09:39:04;;;;;;;0.22;0.22;;;16.50;63.60;;;;;;5037515;28;20029;-24
2021/12/07 09:41:30;;;;;;;0.20;0.20;;;16.50;63.50;;;;;;5038259;28;20041;-23
2021/12/07 09:43:55;;;;;;;0.52;0.50;;;16.40;63.60;;;;;;5038176;28;20497;-27
2021/12/07 09:46:21;;;;;;;0.60;0.40;;;16.40;63.60;;;;;;5038157;28;20018;-29
2021/12/07 09:48:47;;;;;;;0.30;0.30;;;16.40;63.60;;;;;;5037907;28;20160;-23
2021/12/07 09:51:16;;;;;;;0.50;0.30;;;16.50;63.60;;;;;;5037839;28;20104;-23
2021/12/07 09:53:42;;;;;;;0.68;0.30;;;16.40;63.60;;;;;;5037774;28;20187;-25
2021/12/07 09:56:08;;;;;;;0.57;0.40;;;16.40;63.60;;;;;;5037939;28;20104;-26
2021/12/07 09:58:34;;;;;;;0.50;0.30;;;16.40;63.60;;;;;;5037919;28;20053;-23
2021/12/07 10:01:00;;;;;;;0.43;0.40;;;16.40;63.60;;;;;;5037929;28;20032;-25
2021/12/07 10:03:25;;;;;;;0.35;0.30;;;16.40;63.50;;;;;;5037554;28;20108;-22
2021/12/07 10:05:51;;;;;;;0.93;0.30;;;16.40;63.60;;;;;;5037622;28;20100;-30
2021/12/07 10:08:17;;;;;;;0.70;0.40;;;16.40;63.60;;;;;;5037414;28;20029;-21
2021/12/07 10:10:55;;;;;;;1.80;0.30;;;16.40;63.50;;;;;;5037539;28;20030;-23
2021/12/07 10:13:21;;;;;;;0.60;0.32;;;16.40;63.50;;;;;;5037554;28;20026;-23
2021/12/07 10:15:47;;;;;;;0.90;0.30;;;16.40;63.50;;;;;;5037677;28;20060;-26
2021/12/07 10:18:15;;;;;;;0.35;0.25;;;16.40;64.30;;;;;;5037508;28;20021;-23
2021/12/07 10:20:43;;;;;;;0.65;0.55;;;16.40;63.50;;;;;;5037213;28;20040;-24
2021/12/07 10:23:15;;;;;;;1.17;0.50;;;16.40;63.50;;;;;;5037053;28;20120;-24
2021/12/07 10:25:56;;;;;;;0.52;0.32;;;16.40;63.40;;;;;;5037622;28;20041;-29
2021/12/07 10:28:47;;;;;;;0.40;0.40;;;16.40;63.50;;;;;;5037232;28;20014;-24
2021/12/07 10:31:20;;;;;;;0.30;0.30;;;16.40;63.40;;;;;;5037109;28;20593;-26
2021/12/07 10:33:49;;;;;;;0.40;0.30;;;16.40;63.40;;;;;;5037257;28;20096;-21
2021/12/07 10:36:20;;;;;;;0.70;0.50;;;16.40;63.40;;;;;;5037222;28;20076;-22
2021/12/07 10:38:49;;;;;;;0.63;0.30;;;16.40;63.40;;;;;;5036904;28;20100;-27
2021/12/07 10:41:21;;;;;;;0.28;0.22;;;16.40;63.40;;;;;;5037181;28;20025;-29
2021/12/07 10:43:54;;;;;;;0.32;0.30;;;16.40;63.30;;;;;;5037170;28;20025;-28
2021/12/07 10:46:26;;;;;;;0.40;0.20;;;16.40;63.30;;;;;;5037054;28;20025;-30
2021/12/07 10:49:15;;;;;;;1.15;0.30;;;16.40;63.40;;;;;;5036872;28;20116;-28
2021/12/07 10:51:42;;;;;;;0.43;0.30;;;16.40;63.30;;;;;;5036487;28;20026;-23
2021/12/07 10:54:08;;;;;;;0.80;0.52;;;16.40;63.30;;;;;;5019029;28;20091;-25
2021/12/07 10:56:35;;;;;;;0.32;0.25;;;16.40;63.30;;;;;;5036976;28;20022;-23
2021/12/07 10:59:03;;;;;;;0.50;0.32;;;16.40;63.30;;;;;;5036773;28;20029;-24
2021/12/07 11:01:36;;;;;;;0.65;0.40;;;16.40;63.30;;;;;;5036945;28;20030;-24
2021/12/07 11:04:18;;;;;;;0.40;0.25;;;16.40;63.20;;;;;;5036627;28;20029;-26
2021/12/07 11:07:05;;;;;;;0.80;0.40;;;16.40;63.30;;;;;;5036826;28;20071;-25
2021/12/07 11:09:38;;;;;;;0.77;0.40;;;16.40;63.20;;;;;;5026583;28;20029;-31
2021/12/07 11:12:08;;;;;;;0.60;0.40;;;16.40;63.20;;;;;;5036666;28;20393;-27
2021/12/07 11:14:40;;;;;;;1.17;0.40;;;16.40;63.20;;;;;;5036657;28;20025;-25
2021/12/07 11:17:07;;;;;;;0.60;0.30;;;16.40;63.20;;;;;;5036543;28;20017;-27
2021/12/07 11:19:33;;;;;;;0.50;0.50;;;16.40;63.30;;;;;;5036463;28;20029;-24
2021/12/07 11:21:59;;;;;;;0.40;0.30;;;16.40;63.20;;;;;;5036403;28;20052;-24
2021/12/07 11:24:37;;;;;;;0.47;0.30;;;16.40;63.30;;;;;;5019086;28;20021;-29
2021/12/07 11:30:01;;;;;;;1.42;0.60;;;16.40;63.30;;;;;;5036613;28;20083;-24
2021/12/07 11:32:27;;;;;;;0.65;0.60;;;16.40;63.20;;;;;;5036554;28;20036;-27
2021/12/07 11:34:52;;;;;;;0.45;0.20;;;16.40;63.30;;;;;;5036415;28;20025;-23
2021/12/07 11:37:22;;;;;;;0.70;0.20;;;16.40;63.20;;;;;;5018618;28;20026;-24
2021/12/07 11:39:58;;;;;;;0.40;0.40;;;16.40;63.20;;;;;;5036436;28;20109;-25
2021/12/07 11:42:25;;;;;;;0.68;0.52;;;16.40;63.10;;;;;;5036022;28;20029;-25
2021/12/07 11:45:00;;;;;;;0.65;0.35;;;16.40;63.10;;;;;;5034164;28;20026;-21
2021/12/07 11:47:33;;;;;;;0.68;0.65;;;16.40;63.10;;;;;;5026269;28;20036;-26
2021/12/07 11:50:22;;;;;;;0.93;0.50;;;16.40;63.20;;;;;;5026946;28;20061;-22
2021/12/07 11:52:50;;;;;;;0.90;0.52;;;16.40;63.20;;;;;;5009541;28;20076;-26
2021/12/07 11:55:16;;;;;;;1.13;0.40;;;16.40;63.10;;;;;;5025248;28;20506;-24
2021/12/07 11:57:42;;;;;;;0.50;0.40;;;16.40;63.10;;;;;;5026722;28;20026;-29
2021/12/07 12:00:11;;;;;;;0.80;0.40;;;16.40;63.70;;;;;;5024853;28;20038;-21
2021/12/07 12:02:37;;;;;;;0.70;0.47;;;16.40;63.20;;;;;;5038525;28;20017;-25
2021/12/07 12:05:03;;;;;;;1.13;0.40;;;16.40;63.10;;;;;;5039351;28;20025;-27
2021/12/07 12:07:29;;;;;;;0.77;0.50;;;16.40;63.10;;;;;;5039184;28;20048;-28
2021/12/07 12:09:55;;;;;;;0.60;0.50;;;16.40;63.20;;;;;;5024319;28;20025;-26
2021/12/07 12:12:32;;;;;;;0.85;0.45;;;16.40;63.10;;;;;;5021881;28;20071;-28
2021/12/07 12:15:32;;;;;;;0.70;0.32;;;16.40;63.10;;;;;;5020025;28;20171;-29
2021/12/07 12:18:05;;;;;;;0.68;0.30;;;16.40;63.10;;;;;;5037354;28;20048;-23
2021/12/07 12:20:42;;;;;;;0.55;0.43;;;16.40;63.10;;;;;;5036188;28;20026;-23
2021/12/07 12:23:40;;;;;;;0.65;0.40;;;16.40;63.20;;;;;;5035678;28;20025;-26
2021/12/07 12:26:09;;;;;;;0.77;0.50;;;16.40;63.10;;;;;;5002903;28;20041;-27
2021/12/07 12:28:42;;;;;;;0.55;0.50;;;16.40;63.20;;;;;;5035510;28;20017;-29
2021/12/07 12:31:08;;;;;;;0.47;0.40;;;16.40;63.20;;;;;;5039588;28;20033;-25
2021/12/07 12:33:54;;;;;;;0.90;0.40;;;16.40;63.20;;;;;;5039453;28;20029;-26
2021/12/07 12:36:21;;;;;;;0.68;0.60;;;16.40;63.10;;;;;;5039425;28;20060;-28
2021/12/07 12:38:57;;;;;;;0.63;0.40;;;16.40;63.10;;;;;;5037380;28;20018;-24
2021/12/07 12:41:22;;;;;;;0.50;0.30;;;16.40;63.10;;;;;;5030478;28;20018;-27
2021/12/07 12:43:52;;;;;;;0.80;0.50;;;16.40;63.00;;;;;;5037250;28;20032;-24
2021/12/07 12:46:19;;;;;;;0.50;0.47;;;16.40;63.10;;;;;;5037102;28;20367;-25
2021/12/07 12:48:50;;;;;;;0.73;0.60;;;16.40;63.20;;;;;;5037369;28;20046;-28
2021/12/07 12:51:17;;;;;;;0.60;0.40;;;16.40;63.10;;;;;;5037078;28;20108;-21
2021/12/07 12:53:43;;;;;;;1.75;0.30;;;16.40;63.90;;;;;;5036887;28;20112;-29
2021/12/07 12:56:15;;;;;;;0.75;0.40;;;16.40;63.10;;;;;;5037890;28;20052;-26
2021/12/07 12:58:43;;;;;;;0.60;0.40;;;16.30;63.10;;;;;;5039027;28;20025;-26
2021/12/07 13:01:16;;;;;;;0.38;0.38;;;16.40;63.10;;;;;;5039158;28;20033;-28
2021/12/07 13:03:53;;;;;;;0.35;0.35;;;16.40;63.10;;;;;;5038989;28;20471;-24
2021/12/07 13:06:25;;;;;;;0.77;0.40;;;16.40;63.10;;;;;;5038928;28;20025;-30
2021/12/07 13:09:02;;;;;;;1.10;0.70;;;16.30;63.10;;;;;;5038281;28;20112;-26
2021/12/07 13:11:41;;;;;;;0.88;0.50;;;16.40;63.10;;;;;;5039014;28;20077;-30
2021/12/07 13:14:11;;;;;;;0.50;0.50;;;16.30;63.10;;;;;;5037958;28;20392;-23
2021/12/07 13:16:39;;;;;;;1.45;0.60;;;16.40;63.20;;;;;;5038750;28;20378;-32
2021/12/07 13:19:06;;;;;;;0.63;0.40;;;16.40;63.10;;;;;;5038467;28;20041;-32
2021/12/07 13:21:36;;;;;;;0.40;0.30;;;16.30;62.90;;;;;;5038646;28;20406;-28
2021/12/07 13:24:04;;;;;;;1.50;0.40;;;16.30;63.10;;;;;;5038405;28;20359;-25
2021/12/07 13:26:38;;;;;;;0.45;0.40;;;16.30;63.00;;;;;;5038489;28;20109;-27
2021/12/07 13:29:23;;;;;;;1.55;0.40;;;16.30;63.10;;;;;;5018719;28;20026;-22
2021/12/07 13:31:54;;;;;;;0.63;0.50;;;16.40;63.10;;;;;;5024242;28;20021;-26
2021/12/07 13:34:31;;;;;;;0.70;0.70;;;16.40;63.00;;;;;;5028053;28;20037;-26
2021/12/07 13:37:02;;;;;;;0.60;0.57;;;16.40;63.00;;;;;;5032125;28;20043;-26
2021/12/07 13:39:37;;;;;;;0.90;0.40;;;16.40;63.00;;;;;;5038126;28;20025;-24
2021/12/07 13:42:16;;;;;;;0.55;0.40;;;16.30;63.10;;;;;;5018605;28;20053;-25
2021/12/07 13:45:03;;;;;;;0.40;0.25;;;16.30;63.10;;;;;;5018359;28;20026;-24
2021/12/07 13:47:37;;;;;;;0.95;0.47;;;16.30;63.20;;;;;;5017896;28;20410;-28
2021/12/07 13:50:07;;;;;;;0.68;0.60;;;16.30;63.20;;;;;;5034473;28;20045;-28
2021/12/07 13:52:38;;;;;;;0.50;0.40;;;16.30;63.30;;;;;;5037895;28;20022;-22
2021/12/07 13:55:09;;;;;;;0.50;0.43;;;16.30;63.30;;;;;;5037945;28;20038;-26
2021/12/07 13:57:36;;;;;;;0.40;0.40;;;16.40;63.20;;;;;;5037885;28;20474;-22
2021/12/07 14:00:14;;;;;;;0.70;0.50;;;16.30;63.10;;;;;;5037719;28;20040;-25
2021/12/07 14:02:54;;;;;;;0.45;0.38;;;16.40;63.20;;;;;;5037912;28;20060;-29
2021/12/07 14:05:25;;;;;;;0.90;0.57;;;16.40;63.20;;;;;;5037497;28;20029;-25
2021/12/07 14:07:51;;;;;;;0.35;0.35;;;16.40;63.10;;;;;;5037561;28;20080;-24
2021/12/07 14:10:24;;;;;;;0.40;0.32;;;16.40;63.20;;;;;;5037634;28;20453;-27
2021/12/07 14:12:50;;;;;;;0.25;0.22;;;16.40;63.10;;;;;;5037663;28;20105;-27
2021/12/07 14:15:19;;;;;;;0.50;0.32;;;16.40;63.20;;;;;;5037737;28;20049;-25
2021/12/07 14:17:50;;;;;;;0.70;0.45;;;16.40;63.20;;;;;;5037521;28;20151;-25
2021/12/07 14:20:30;;;;;;;0.70;0.50;;;16.40;63.10;;;;;;5037328;28;20374;-23
2021/12/07 14:22:56;;;;;;;0.55;0.40;;;16.40;63.30;;;;;;5037302;28;20022;-27
2021/12/07 14:25:21;;;;;;;0.57;0.40;;;16.40;63.40;;;;;;5037298;28;20112;-27
2021/12/07 14:27:47;;;;;;;0.50;0.43;;;16.40;63.30;;;;;;5037426;28;20084;-28
2021/12/07 14:30:13;;;;;;;0.68;0.50;;;16.40;63.40;;;;;;5037259;28;20022;-25
2021/12/07 14:32:40;;;;;;;0.30;0.20;;;16.40;63.40;;;;;;5037022;28;20068;-24
2021/12/07 14:35:06;;;;;;;0.40;0.35;;;16.30;63.40;;;;;;5037163;28;20061;-26
2021/12/07 14:37:32;;;;;;;0.40;0.30;;;16.40;63.50;;;;;;5037217;28;20030;-21